createdAt,value
2022-12-28T00:01:19.131Z,101562.78
2022-12-28T00:03:46.479Z,101543.91
2022-12-28T00:06:13.957Z,101528.66
2022-12-28T00:08:40.945Z,101529.53
2022-12-28T00:11:20.583Z,101525.03
2022-12-28T00:13:56.097Z,101529.44
2022-12-28T00:16:28.424Z,101530.31
2022-12-28T00:18:56.212Z,101516.88
2022-12-28T00:21:23.340Z,101519.56
2022-12-28T00:23:57.202Z,101509.78
2022-12-28T00:26:25.078Z,101500.78
2022-12-28T00:28:51.594Z,101501.63
2022-12-28T00:31:18.197Z,101496.19
2022-12-28T00:33:45.638Z,101479.97
2022-12-28T00:36:14.516Z,101467.41
2022-12-28T00:38:41.797Z,101467.41
2022-12-28T00:41:09.571Z,101462.13
2022-12-28T00:43:36.421Z,101454.94
2022-12-28T00:46:03.666Z,101451.50
2022-12-28T00:48:30.409Z,101448.03
2022-12-28T00:51:18.212Z,101452.63
2022-12-28T00:53:45.394Z,101446.31
2022-12-28T00:56:17.595Z,101433.75
2022-12-28T00:58:45.213Z,101434.63
2022-12-28T01:01:15.150Z,101437.31
2022-12-28T01:03:41.969Z,101444.31
2022-12-28T01:06:10.869Z,101427.16
2022-12-28T01:08:38.690Z,101430.59
2022-12-28T01:11:10.382Z,101424.28
2022-12-28T01:13:37.529Z,101427.72
2022-12-28T01:16:15.426Z,101424.19
2022-12-28T01:18:43.317Z,101425.81
2022-12-28T01:21:18.515Z,101417.75
2022-12-28T01:23:46.340Z,101412.28
2022-12-28T01:26:13.848Z,101423.84
2022-12-28T01:28:40.832Z,101408.59
2022-12-28T01:31:12.329Z,101407.53
2022-12-28T01:33:39.173Z,101403.81
2022-12-28T01:36:14.478Z,101394.78
2022-12-28T01:38:41.030Z,101396.41
2022-12-28T01:41:10.024Z,101381.16
2022-12-28T01:43:41.326Z,101377.44
2022-12-28T01:46:11.239Z,101380.97
2022-12-28T01:48:45.830Z,101380.78
2022-12-28T01:51:12.495Z,101375.22
2022-12-28T01:53:39.418Z,101369.00
2022-12-28T01:56:06.299Z,101355.38
2022-12-28T01:58:34.368Z,101359.78
2022-12-28T02:01:01.618Z,101353.34
2022-12-28T02:03:30.965Z,101327.25
2022-12-28T02:06:01.991Z,101338.75
2022-12-28T02:08:53.750Z,101329.84
2022-12-28T02:11:20.829Z,101331.28
2022-12-28T02:13:49.387Z,101324.94
2022-12-28T02:16:17.952Z,101312.25
2022-12-28T02:18:46.397Z,101313.13
2022-12-28T02:21:27.760Z,101304.00
2022-12-28T02:24:25.573Z,101299.41
2022-12-28T02:27:22.648Z,101285.00
2022-12-28T02:29:57.973Z,101281.25
2022-12-28T02:33:07.850Z,101263.50
2022-12-28T02:35:56.850Z,101255.25
2022-12-28T02:38:34.661Z,101255.03
2022-12-28T02:41:12.708Z,101246.88
2022-12-28T02:43:39.701Z,101243.13
2022-12-28T02:46:35.539Z,101243.03
2022-12-28T02:49:39.705Z,101236.59
2022-12-28T02:52:12.886Z,101221.31
2022-12-28T02:55:28.405Z,101219.50
2022-12-28T02:57:58.130Z,101223.59
2022-12-28T03:00:29.595Z,101218.13
2022-12-28T03:03:15.676Z,101222.53
2022-12-28T03:06:30.256Z,101218.88
2022-12-28T03:09:09.942Z,101216.84
2022-12-28T03:12:04.079Z,101215.13
2022-12-28T03:14:39.631Z,101208.66
2022-12-28T03:17:27.246Z,101213.19
2022-12-28T03:20:16.896Z,101212.44
2022-12-28T03:23:04.157Z,101209.63
2022-12-28T03:25:56.451Z,101204.25
2022-12-28T03:28:50.267Z,101201.56
2022-12-28T03:31:23.624Z,101186.31
2022-12-28T03:34:06.651Z,101191.63
2022-12-28T03:37:00.197Z,101188.94
2022-12-28T03:39:49.794Z,101183.44
2022-12-28T03:42:45.906Z,101186.03
2022-12-28T03:45:46.688Z,101177.84
2022-12-28T03:48:12.050Z,101179.59
2022-12-28T03:50:42.761Z,101180.53
2022-12-28T03:53:09.937Z,101178.72
2022-12-28T03:55:39.786Z,101172.38
2022-12-28T03:58:07.349Z,101175.06
2022-12-28T04:00:34.047Z,101169.59
2022-12-28T04:03:00.956Z,101173.13
2022-12-28T04:05:28.462Z,101155.28
2022-12-28T04:07:55.041Z,101161.50
2022-12-28T04:10:22.782Z,101153.25
2022-12-28T04:12:53.770Z,101156.78
2022-12-28T04:15:38.416Z,101149.38
2022-12-28T04:18:05.202Z,101149.25
2022-12-28T04:20:32.289Z,101145.59
2022-12-28T04:22:58.881Z,101138.41
2022-12-28T04:25:25.474Z,101148.19
2022-12-28T04:27:52.800Z,101140.97
2022-12-28T04:30:37.490Z,101137.22
2022-12-28T04:33:04.481Z,101141.75
2022-12-28T04:35:32.877Z,101139.81
2022-12-28T04:37:59.598Z,101137.97
2022-12-28T04:40:26.078Z,101137.88
2022-12-28T04:42:52.546Z,101141.31
2022-12-28T04:45:22.108Z,101135.06
2022-12-28T04:47:49.185Z,101144.75
2022-12-28T04:50:15.726Z,101135.72
2022-12-28T04:52:43.228Z,101131.09
2022-12-28T04:55:32.664Z,101132.81
2022-12-28T04:57:56.267Z,101141.75
2022-12-28T05:00:22.948Z,101130.00
2022-12-28T05:02:49.569Z,101140.66
2022-12-28T05:05:16.159Z,101126.25
2022-12-28T05:07:42.677Z,101120.66
2022-12-28T05:10:09.423Z,101122.38
2022-12-28T05:12:35.970Z,101117.84
2022-12-28T05:15:02.547Z,101112.47
2022-12-28T05:17:29.062Z,101104.19
2022-12-28T05:19:55.602Z,101106.75
2022-12-28T05:22:22.171Z,101113.00
2022-12-28T05:24:48.636Z,101118.28
2022-12-28T05:27:15.175Z,101114.72
2022-12-28T05:29:41.742Z,101111.06
2022-12-28T05:32:08.290Z,101118.16
2022-12-28T05:34:34.785Z,101125.28
2022-12-28T05:37:01.316Z,101114.50
2022-12-28T05:39:28.044Z,101122.34
2022-12-28T05:41:54.670Z,101123.22
2022-12-28T05:44:21.176Z,101121.16
2022-12-28T05:46:47.850Z,101113.00
2022-12-28T05:49:14.330Z,101114.81
2022-12-28T05:51:40.887Z,101115.69
2022-12-28T05:54:07.480Z,101112.03
2022-12-28T05:56:34.368Z,101102.03
2022-12-28T05:59:06.387Z,101102.78
2022-12-28T06:01:36.177Z,101105.47
2022-12-28T06:04:05.710Z,101098.25
2022-12-28T06:06:34.687Z,101096.31
2022-12-28T06:09:01.810Z,101090.84
2022-12-28T06:11:29.524Z,101084.47
2022-12-28T06:13:58.330Z,101088.78
2022-12-28T06:16:27.763Z,101080.69
2022-12-28T06:18:54.437Z,101079.72
2022-12-28T06:21:30.027Z,101083.41
2022-12-28T06:23:58.442Z,101065.63
2022-12-28T06:26:26.750Z,101064.56
2022-12-28T06:28:53.281Z,101070.72
2022-12-28T06:31:25.259Z,101063.50
2022-12-28T06:33:57.090Z,101075.00
2022-12-28T06:36:26.624Z,101067.69
2022-12-28T06:38:56.029Z,101069.41
2022-12-28T06:41:23.259Z,101067.34
2022-12-28T06:43:50.442Z,101071.75
2022-12-28T06:46:18.761Z,101061.84
2022-12-28T06:48:45.643Z,101064.44
2022-12-28T06:51:16.680Z,101062.50
2022-12-28T06:53:43.991Z,101058.72
2022-12-28T06:56:13.601Z,101059.56
2022-12-28T06:58:41.149Z,101063.00
2022-12-28T07:01:17.161Z,101069.25
2022-12-28T07:03:45.446Z,101066.44
2022-12-28T07:06:13.657Z,101058.38
2022-12-28T07:08:40.266Z,101059.22
2022-12-28T07:11:12.106Z,101065.34
2022-12-28T07:13:39.312Z,101059.00
2022-12-28T07:16:12.404Z,101059.00
2022-12-28T07:18:39.127Z,101054.38
2022-12-28T07:21:08.369Z,101051.66
2022-12-28T07:23:35.402Z,101049.72
2022-12-28T07:26:11.192Z,101047.16
2022-12-28T07:28:39.000Z,101051.44
2022-12-28T07:31:08.144Z,101056.81
2022-12-28T07:33:36.066Z,101048.63
2022-12-28T07:36:04.735Z,101051.22
2022-12-28T07:38:31.390Z,101049.38
2022-12-28T07:41:02.552Z,101055.50
2022-12-28T07:43:30.170Z,101054.41
2022-12-28T07:46:17.225Z,101062.16
2022-12-28T07:48:44.843Z,101061.06
2022-12-28T07:51:15.844Z,101063.41
2022-12-28T07:53:44.683Z,101061.47
2022-12-28T07:56:12.980Z,101061.22
2022-12-28T08:01:07.419Z,101055.63
2022-12-28T08:03:34.827Z,101057.97
2022-12-28T08:06:05.504Z,101060.53
2022-12-28T08:08:34.995Z,101059.44
2022-12-28T08:11:04.214Z,101062.13
2022-12-28T08:13:32.434Z,101060.06
2022-12-28T08:15:59.009Z,101058.97
2022-12-28T08:18:26.265Z,101052.72
2022-12-28T08:20:53.074Z,101043.66
2022-12-28T08:23:19.707Z,101053.59
2022-12-28T08:25:46.182Z,101051.00
2022-12-28T08:28:12.720Z,101054.44
2022-12-28T08:30:39.382Z,101048.97
2022-12-28T08:33:05.915Z,101050.81
2022-12-28T08:35:35.831Z,101052.53
2022-12-28T08:38:02.317Z,101046.16
2022-12-28T08:40:29.965Z,101052.53
2022-12-28T08:42:58.762Z,101048.13
2022-12-28T08:45:26.431Z,101052.72
2022-12-28T08:47:53.457Z,101042.81
2022-12-28T08:50:23.727Z,101044.56
2022-12-28T08:52:53.069Z,101043.59
2022-12-28T08:55:19.719Z,101043.59
2022-12-28T08:57:46.266Z,101041.75
2022-12-28T09:00:13.295Z,101043.34
2022-12-28T09:02:40.178Z,101046.91
2022-12-28T09:05:07.194Z,101040.53
2022-12-28T09:07:33.676Z,101044.94
2022-12-28T09:10:01.286Z,101039.44
2022-12-28T09:12:27.911Z,101043.84
2022-12-28T09:14:54.474Z,101039.31
2022-12-28T09:17:21.060Z,101045.44
2022-12-28T09:19:47.741Z,101041.03
2022-12-28T09:22:14.349Z,101045.56
2022-12-28T09:24:41.255Z,101053.53
2022-12-28T09:27:07.739Z,101046.31
2022-12-28T09:29:35.769Z,101038.09
2022-12-28T09:32:02.221Z,101043.38
2022-12-28T09:34:37.814Z,101042.53
2022-12-28T09:37:08.421Z,101040.56
2022-12-28T09:39:35.065Z,101045.09
2022-12-28T09:42:16.700Z,101048.66
2022-12-28T09:44:55.907Z,101039.72
2022-12-28T09:47:25.847Z,101043.25
2022-12-28T09:50:15.999Z,101033.47
2022-12-28T09:53:06.822Z,101041.31
2022-12-28T09:55:38.375Z,101034.09
2022-12-28T09:58:11.794Z,101037.63
2022-12-28T10:00:44.225Z,101035.69
2022-12-28T10:03:20.383Z,101033.72
2022-12-28T10:05:48.321Z,101030.16
2022-12-28T10:08:18.265Z,101028.22
2022-12-28T10:10:48.634Z,101024.41
2022-12-28T10:13:53.663Z,101029.81
2022-12-28T10:16:20.486Z,101030.44
2022-12-28T10:18:49.133Z,101030.19
2022-12-28T10:21:25.414Z,101038.16
2022-12-28T10:24:29.726Z,101029.94
2022-12-28T10:26:46.346Z,101022.59
2022-12-28T10:29:19.024Z,101020.03
2022-12-28T10:31:58.534Z,101019.91
2022-12-28T10:34:25.340Z,101016.00
2022-12-28T10:36:53.676Z,101017.69
2022-12-28T10:39:26.914Z,101014.03
2022-12-28T10:41:54.830Z,101004.97
2022-12-28T10:44:40.151Z,101009.63
2022-12-28T10:47:22.995Z,101005.94
2022-12-28T10:50:10.544Z,101003.25
2022-12-28T10:52:38.022Z,101008.50
2022-12-28T10:55:31.996Z,101002.25
2022-12-28T10:58:31.783Z,101002.03
2022-12-28T11:01:12.310Z,100992.94
2022-12-28T11:03:58.727Z,100995.78
2022-12-28T11:06:28.188Z,100986.09
2022-12-28T11:09:15.442Z,100978.84
2022-12-28T11:11:44.016Z,100984.13
2022-12-28T11:14:30.304Z,100982.28
2022-12-28T11:16:57.183Z,100984.84
2022-12-28T11:19:25.893Z,100973.22
2022-12-28T11:21:52.964Z,100971.25
2022-12-28T11:24:25.610Z,100971.25
2022-12-28T11:26:52.224Z,100964.16
2022-12-28T11:29:19.544Z,100959.72
2022-12-28T11:32:08.518Z,100962.44
2022-12-28T11:34:37.193Z,100946.97
2022-12-28T11:37:03.729Z,100947.09
2022-12-28T11:39:32.323Z,100951.53
2022-12-28T11:44:49.507Z,100942.44
2022-12-28T11:47:16.156Z,100947.84
2022-12-28T11:49:45.178Z,100938.03
2022-12-28T11:52:14.769Z,100932.66
2022-12-28T11:55:26.213Z,100933.50
2022-12-28T11:57:54.613Z,100931.44
2022-12-28T12:00:23.223Z,100926.06
2022-12-28T12:02:56.670Z,100918.81
2022-12-28T12:05:38.433Z,100913.44
2022-12-28T12:08:17.240Z,100921.41
2022-12-28T12:10:44.817Z,100907.78
2022-12-28T12:13:26.475Z,100912.31
2022-12-28T12:15:56.668Z,100906.06
2022-12-28T12:18:25.351Z,100892.59
2022-12-28T12:21:15.600Z,100884.50
2022-12-28T12:23:51.290Z,100886.09
2022-12-28T12:26:43.878Z,100884.25
2022-12-28T12:29:39.453Z,100875.19
2022-12-28T12:32:22.211Z,100884.13
2022-12-28T12:35:04.568Z,100879.59
2022-12-28T12:37:43.279Z,100871.63
2022-12-28T12:40:09.855Z,100868.78
2022-12-28T12:43:13.454Z,100865.50
2022-12-28T12:45:47.630Z,100859.25
2022-12-28T12:48:20.083Z,100853.97
2022-12-28T12:50:57.710Z,100847.00
2022-12-28T12:53:36.122Z,100854.97
2022-12-28T12:56:36.078Z,100842.19
2022-12-28T12:59:39.655Z,100838.53
2022-12-28T13:02:12.171Z,100828.47
2022-12-28T13:04:46.053Z,100826.75
2022-12-28T13:07:27.686Z,100813.28
2022-12-28T13:09:58.525Z,100798.81
2022-12-28T13:12:25.599Z,100806.88
2022-12-28T13:15:00.487Z,100791.56
2022-12-28T13:17:27.573Z,100790.47
2022-12-28T13:20:17.220Z,100785.06
2022-12-28T13:22:46.093Z,100772.19
2022-12-28T13:25:34.555Z,100776.59
2022-12-28T13:28:02.819Z,100778.44
2022-12-28T13:30:30.720Z,100767.63
2022-12-28T13:33:03.165Z,100760.53
2022-12-28T13:35:33.049Z,100759.53
2022-12-28T13:38:09.878Z,100755.88
2022-12-28T13:40:38.903Z,100743.38
2022-12-28T13:43:29.988Z,100740.78
2022-12-28T13:46:02.744Z,100736.13
2022-12-28T13:48:31.455Z,100736.25
2022-12-28T13:50:58.313Z,100721.78
2022-12-28T13:53:29.826Z,100720.06
2022-12-28T13:56:00.407Z,100712.97
2022-12-28T13:59:01.640Z,100711.13
2022-12-28T14:01:33.841Z,100706.31
2022-12-28T14:04:42.378Z,100708.16
2022-12-28T14:06:52.051Z,100697.38
2022-12-28T14:09:20.723Z,100694.56
2022-12-28T14:11:48.880Z,100683.03
2022-12-28T14:14:16.422Z,100681.47
2022-12-28T14:16:44.093Z,100676.78
2022-12-28T14:19:11.219Z,100670.41
2022-12-28T14:21:44.175Z,100661.31
2022-12-28T14:24:13.861Z,100640.59
2022-12-28T14:26:48.490Z,100647.00
2022-12-28T14:29:27.320Z,100649.69
2022-12-28T14:32:06.773Z,100641.59
2022-12-28T14:34:37.751Z,100629.22
2022-12-28T14:37:05.375Z,100628.25
2022-12-28T14:39:35.228Z,100627.38
2022-12-28T14:42:04.417Z,100624.56
2022-12-28T14:44:31.035Z,100615.47
2022-12-28T14:46:58.207Z,100619.88
2022-12-28T14:49:30.779Z,100610.94
2022-12-28T14:51:57.221Z,100608.97
2022-12-28T14:54:25.743Z,100614.34
2022-12-28T14:57:00.807Z,100608.97
2022-12-28T14:59:29.208Z,100611.66
2022-12-28T15:01:56.162Z,100595.38
2022-12-28T15:04:39.964Z,100593.53
2022-12-28T15:07:11.867Z,100589.13
2022-12-28T15:09:38.489Z,100582.00
2022-12-28T15:12:22.043Z,100578.34
2022-12-28T15:14:49.472Z,100579.28
2022-12-28T15:17:16.812Z,100586.53
2022-12-28T15:19:45.141Z,100565.81
2022-12-28T15:22:12.943Z,100563.25
2022-12-28T15:24:41.443Z,100558.59
2022-12-28T15:27:07.957Z,100550.50
2022-12-28T15:32:22.449Z,100536.03
2022-12-28T15:34:48.963Z,100540.56
2022-12-28T15:37:15.508Z,100543.28
2022-12-28T15:39:42.091Z,100527.19
2022-12-28T15:42:08.822Z,100534.44
2022-12-28T15:44:35.318Z,100528.03
2022-12-28T15:47:02.108Z,100534.44
2022-12-28T15:49:28.693Z,100530.03
2022-12-28T15:51:55.310Z,100520.94
2022-12-28T15:54:21.823Z,100519.94
2022-12-28T15:56:53.844Z,100508.31
2022-12-28T15:59:20.457Z,100501.97
2022-12-28T16:01:48.118Z,100495.81
2022-12-28T16:04:14.887Z,100499.38
2022-12-28T16:06:44.667Z,100484.16
2022-12-28T16:09:12.660Z,100489.56
2022-12-28T16:11:40.988Z,100467.97
2022-12-28T16:14:08.914Z,100490.69
2022-12-28T16:16:38.770Z,100489.84
2022-12-28T16:19:06.850Z,100477.47
2022-12-28T16:21:33.655Z,100476.63
2022-12-28T16:24:01.021Z,100472.34
2022-12-28T16:26:28.295Z,100468.09
2022-12-28T16:28:55.300Z,100462.97
2022-12-28T16:31:29.282Z,100461.25
2022-12-28T16:34:03.768Z,100461.13
2022-12-28T16:36:31.382Z,100455.72
2022-12-28T16:38:58.304Z,100455.84
2022-12-28T16:41:25.891Z,100444.34
2022-12-28T16:44:01.559Z,100437.25
2022-12-28T16:46:28.295Z,100440.06
2022-12-28T16:48:55.011Z,100419.75
2022-12-28T16:51:21.563Z,100420.03
2022-12-28T16:53:48.044Z,100420.16
2022-12-28T16:56:14.524Z,100416.88
2022-12-28T16:58:44.919Z,100409.91
2022-12-28T17:01:14.532Z,100409.91
2022-12-28T17:03:41.177Z,100404.53
2022-12-28T17:06:08.001Z,100391.19
2022-12-28T17:08:35.927Z,100391.31
2022-12-28T17:11:06.346Z,100392.16
2022-12-28T17:13:33.965Z,100375.13
2022-12-28T17:16:00.681Z,100370.59
2022-12-28T17:18:27.607Z,100366.34
2022-12-28T17:20:55.678Z,100367.19
2022-12-28T17:23:22.711Z,100368.03
2022-12-28T17:25:52.353Z,100360.09
2022-12-28T17:28:18.875Z,100349.44
2022-12-28T17:30:45.496Z,100340.50
2022-12-28T17:33:14.180Z,100349.59
2022-12-28T17:35:40.809Z,100344.31
2022-12-28T17:38:07.376Z,100342.50
2022-12-28T17:40:33.990Z,100337.94
2022-12-28T17:43:00.470Z,100336.97
2022-12-28T17:45:26.983Z,100335.97
2022-12-28T17:47:53.584Z,100330.59
2022-12-28T17:50:20.190Z,100331.44
2022-12-28T17:52:46.979Z,100327.16
2022-12-28T17:55:13.634Z,100319.22
2022-12-28T17:57:40.150Z,100325.59
2022-12-28T18:00:07.320Z,100312.25
2022-12-28T18:02:39.039Z,100297.66
2022-12-28T18:05:06.404Z,100308.56
2022-12-28T18:07:33.121Z,100294.25
2022-12-28T18:09:59.664Z,100290.69
2022-12-28T18:12:26.198Z,100288.84
2022-12-28T18:14:52.871Z,100285.19
2022-12-28T18:17:23.144Z,100277.22
2022-12-28T18:19:52.907Z,100274.41
2022-12-28T18:22:20.746Z,100281.50
2022-12-28T18:24:47.275Z,100269.00
2022-12-28T18:27:13.822Z,100270.84
2022-12-28T18:29:40.471Z,100263.63
2022-12-28T18:32:06.993Z,100262.75
2022-12-28T18:34:33.478Z,100267.16
2022-12-28T18:37:00.032Z,100249.16
2022-12-28T18:39:26.631Z,100253.81
2022-12-28T18:41:53.252Z,100258.38
2022-12-28T18:44:19.840Z,100260.06
2022-12-28T18:46:46.382Z,100251.97
2022-12-28T18:49:13.009Z,100251.00
2022-12-28T18:51:39.541Z,100246.47
2022-12-28T18:54:06.108Z,100251.13
2022-12-28T18:56:32.658Z,100244.88
2022-12-28T18:58:59.283Z,100243.03
2022-12-28T19:04:16.202Z,100243.75
2022-12-28T19:06:43.198Z,100239.22
2022-12-28T19:09:10.690Z,100225.75
2022-12-28T19:11:38.559Z,100221.06
2022-12-28T19:14:07.403Z,100229.88
2022-12-28T19:16:34.656Z,100226.19
2022-12-28T19:19:01.338Z,100217.97
2022-12-28T19:21:30.337Z,100217.25
2022-12-28T19:24:09.879Z,100211.00
2022-12-28T19:26:36.457Z,100204.63
2022-12-28T19:29:03.500Z,100205.47
2022-12-28T19:31:30.780Z,100198.94
2022-12-28T19:33:57.397Z,100192.56
2022-12-28T19:36:24.265Z,100196.97
2022-12-28T19:38:53.293Z,100204.91
2022-12-28T19:41:19.918Z,100198.38
2022-12-28T19:43:46.466Z,100197.38
2022-12-28T19:46:16.717Z,100203.50
2022-12-28T19:48:43.273Z,100198.81
2022-12-28T19:51:10.070Z,100178.81
2022-12-28T19:53:37.480Z,100193.00
2022-12-28T19:56:06.817Z,100197.28
2022-12-28T19:58:35.037Z,100191.75
2022-12-28T20:01:19.618Z,100193.31
2022-12-28T20:03:48.230Z,100193.03
2022-12-28T20:06:23.672Z,100200.13
2022-12-28T20:08:51.182Z,100197.00
2022-12-28T20:11:19.881Z,100200.28
2022-12-28T20:13:53.787Z,100194.03
2022-12-28T20:16:21.584Z,100185.94
2022-12-28T20:18:49.637Z,100182.38
2022-12-28T20:21:19.476Z,100181.53
2022-12-28T20:23:48.025Z,100186.78
2022-12-28T20:26:15.104Z,100185.66
2022-12-28T20:28:41.627Z,100178.41
2022-12-28T20:31:10.827Z,100182.81
2022-12-28T20:33:38.084Z,100180.84
2022-12-28T20:36:07.711Z,100170.91
2022-12-28T20:38:34.842Z,100178.72
2022-12-28T20:41:02.433Z,100170.47
2022-12-28T20:43:29.090Z,100167.63
2022-12-28T20:45:55.650Z,100164.50
2022-12-28T20:48:22.263Z,100152.44
2022-12-28T20:50:48.806Z,100154.69
2022-12-28T20:53:16.021Z,100153.56
2022-12-28T20:55:42.585Z,100154.13
2022-12-28T20:58:09.241Z,100144.88
2022-12-28T21:00:38.533Z,100148.00
2022-12-28T21:03:05.530Z,100149.41
2022-12-28T21:05:32.252Z,100151.81
2022-12-28T21:07:59.355Z,100144.41
2022-12-28T21:10:25.917Z,100144.13
2022-12-28T21:12:52.454Z,100151.06
2022-12-28T21:15:19.143Z,100155.31
2022-12-28T21:17:45.698Z,100146.94
2022-12-28T21:20:12.221Z,100145.78
2022-12-28T21:22:38.777Z,100145.63
2022-12-28T21:25:05.943Z,100135.38
2022-12-28T21:27:32.417Z,100137.78
2022-12-28T21:29:58.959Z,100129.69
2022-12-28T21:32:25.555Z,100133.78
2022-12-28T21:34:52.121Z,100130.09
2022-12-28T21:37:36.696Z,100123.69
2022-12-28T21:40:06.962Z,100132.66
2022-12-28T21:42:34.763Z,100117.19
2022-12-28T21:45:02.160Z,100121.59
2022-12-28T21:47:28.875Z,100105.22
2022-12-28T21:49:55.436Z,100112.34
2022-12-28T21:52:22.517Z,100104.94
2022-12-28T21:54:49.110Z,100103.94
2022-12-28T21:57:15.691Z,100102.78
2022-12-28T21:59:42.967Z,100107.03
2022-12-28T22:02:36.990Z,100092.53
2022-12-28T22:05:23.037Z,100083.41
2022-12-28T22:08:10.422Z,100092.06
2022-12-28T22:10:56.560Z,100097.31
2022-12-28T22:13:23.444Z,100095.06
2022-12-28T22:15:52.904Z,100091.66
2022-12-28T22:18:44.882Z,100080.72
2022-12-28T22:21:08.425Z,100077.88
2022-12-28T22:23:35.320Z,100081.41
2022-12-28T22:26:02.444Z,100065.38
2022-12-28T22:28:29.013Z,100065.22
2022-12-28T22:30:55.515Z,100073.31
2022-12-28T22:33:22.042Z,100063.34
2022-12-28T22:35:48.622Z,100062.50
2022-12-28T22:38:15.142Z,100051.56
2022-12-28T22:40:41.673Z,100065.06
2022-12-28T22:43:08.240Z,100067.59
2022-12-28T22:45:34.850Z,100066.59
2022-12-28T22:48:01.447Z,100067.47
2022-12-28T22:50:28.699Z,100070.84
2022-12-28T22:52:55.895Z,100062.59
2022-12-28T22:55:22.472Z,100064.28
2022-12-28T22:57:49.068Z,100058.75
2022-12-28T23:00:15.849Z,100067.53
2022-12-28T23:02:43.418Z,100071.97
2022-12-28T23:05:10.188Z,100074.69
2022-12-28T23:07:38.638Z,100062.03
2022-12-28T23:10:07.230Z,100069.28
2022-12-28T23:12:33.846Z,100061.03
2022-12-28T23:15:29.582Z,100062.88
2022-12-28T23:18:16.072Z,100055.47
2022-12-28T23:21:00.971Z,100050.91
2022-12-28T23:23:46.246Z,100046.34
2022-12-28T23:26:31.193Z,100043.50
2022-12-28T23:28:57.780Z,100041.66
2022-12-28T23:31:24.439Z,100031.84
2022-12-28T23:33:52.647Z,100025.75
2022-12-28T23:36:19.181Z,100026.59
2022-12-28T23:38:45.706Z,100026.44
2022-12-28T23:41:34.573Z,100010.22
2022-12-28T23:44:01.213Z,100007.38
2022-12-28T23:46:27.779Z,100004.81
2022-12-28T23:48:54.327Z,100007.53
2022-12-28T23:51:20.963Z,100004.53
2022-12-28T23:53:47.760Z,99998.09
2022-12-28T23:56:14.326Z,99991.56
2022-12-28T23:58:40.848Z,99978.88
